UAE336 OMDB-RPLL
Flight info
| Callsign | UAE336 |
|---|---|
| Flight time | N/A |
| Altitude | 31000 |
| Route | IVURO M428 MUNGA A777 VAXIM L301 RASKI L639 RITPO/N0496F330 L639 BPL A791 CEA B465 CTG A599 LINSO/K0926S1010 A599 MAKUL/K0909S1070 A599 POU B330 TAMOT/N0497F350 B330 BIGEX DCT POVAM DCT NOPER V642 NOMAN A461 AVMUP W16 TADEL |
| Aircraft | B77W/H-SDE1E2E3FGHIJ2J3J4J5M1RWXY/LB1D1 |
Departure
| Time | 2026-04-23 21:27 |
|---|---|
| Airport | Dubai International Airport (OMDB) |
Arrival
| Time | N/A |
|---|---|
| Airport | Ninoy Aquino International Airport (RPLL) |
| Time | Latitude | Longitude | Altitude | Speed | Heading |
|---|---|---|---|---|---|
| 2026-04-23 20:40 | 25.24656 | 55.36304 | 45 ft | 0 kts | 31° |
| 2026-04-23 21:00 | 25.24651 | 55.36301 | 45 ft | 2 kts | 31° |
| 2026-04-23 21:00 | 25.24632 | 55.36288 | 45 ft | 3 kts | 31° |
| 2026-04-23 21:00 | 25.24610 | 55.36277 | 45 ft | 3 kts | 14° |
| 2026-04-23 21:00 | 25.24588 | 55.36275 | 45 ft | 2 kts | 349° |
| 2026-04-23 21:01 | 25.24571 | 55.36283 | 45 ft | 2 kts | 316° |
| 2026-04-23 21:01 | 25.24559 | 55.36303 | 45 ft | 3 kts | 296° |
| 2026-04-23 21:01 | 25.24546 | 55.36329 | 45 ft | 3 kts | 300° |
| 2026-04-23 21:01 | 25.24544 | 55.36333 | 45 ft | 0 kts | 300° |
| 2026-04-23 21:05 | 25.24546 | 55.36329 | 45 ft | 1 kts | 300° |
| 2026-04-23 21:05 | 25.24555 | 55.36313 | 45 ft | 3 kts | 301° |
| 2026-04-23 21:05 | 25.24571 | 55.36284 | 45 ft | 5 kts | 302° |
| 2026-04-23 21:06 | 25.24595 | 55.36243 | 45 ft | 7 kts | 301° |
| 2026-04-23 21:06 | 25.24615 | 55.36199 | 45 ft | 6 kts | 301° |
| 2026-04-23 21:06 | 25.24644 | 55.36150 | 45 ft | 8 kts | 302° |
| 2026-04-23 21:06 | 25.24679 | 55.36092 | 45 ft | 9 kts | 304° |
| 2026-04-23 21:07 | 25.24716 | 55.36024 | 45 ft | 10 kts | 301° |
| 2026-04-23 21:07 | 25.24743 | 55.35976 | 45 ft | 0 kts | 301° |
| 2026-04-23 21:11 | 25.24748 | 55.35967 | 45 ft | 3 kts | 301° |
| 2026-04-23 21:12 | 25.24774 | 55.35920 | 45 ft | 10 kts | 301° |
| 2026-04-23 21:12 | 25.24818 | 55.35840 | 45 ft | 11 kts | 304° |
| 2026-04-23 21:12 | 25.24864 | 55.35767 | 45 ft | 11 kts | 304° |
| 2026-04-23 21:12 | 25.24912 | 55.35686 | 45 ft | 13 kts | 301° |
| 2026-04-23 21:13 | 25.24964 | 55.35596 | 45 ft | 14 kts | 302° |
| 2026-04-23 21:13 | 25.25020 | 55.35495 | 45 ft | 16 kts | 300° |
| 2026-04-23 21:13 | 25.25083 | 55.35384 | 45 ft | 16 kts | 302° |
| 2026-04-23 21:13 | 25.25143 | 55.35288 | 45 ft | 13 kts | 304° |
| 2026-04-23 21:14 | 25.25193 | 55.35209 | 45 ft | 11 kts | 305° |
| 2026-04-23 21:14 | 25.25244 | 55.35125 | 45 ft | 15 kts | 301° |
| 2026-04-23 21:14 | 25.25308 | 55.35009 | 45 ft | 17 kts | 301° |
| 2026-04-23 21:14 | 25.25379 | 55.34912 | 45 ft | 14 kts | 325° |
| 2026-04-23 21:15 | 25.25466 | 55.34910 | 45 ft | 12 kts | 25° |
| 2026-04-23 21:15 | 25.25539 | 55.34953 | 45 ft | 10 kts | 30° |
| 2026-04-23 21:15 | 25.25597 | 55.34991 | 45 ft | 8 kts | 30° |
| 2026-04-23 21:15 | 25.25646 | 55.35023 | 45 ft | 8 kts | 31° |
| 2026-04-23 21:16 | 25.25700 | 55.35061 | 45 ft | 9 kts | 34° |
| 2026-04-23 21:16 | 25.25727 | 55.35132 | 45 ft | 11 kts | 88° |
| 2026-04-23 21:16 | 25.25767 | 55.35213 | 45 ft | 13 kts | 41° |
| 2026-04-23 21:16 | 25.25838 | 55.35267 | 45 ft | 11 kts | 32° |
| 2026-04-23 21:17 | 25.25896 | 55.35307 | 45 ft | 7 kts | 32° |
| 2026-04-23 21:17 | 25.25936 | 55.35334 | 45 ft | 3 kts | 32° |
| 2026-04-23 21:17 | 25.25937 | 55.35335 | 45 ft | 0 kts | 32° |
| 2026-04-23 21:18 | 25.25942 | 55.35339 | 45 ft | 2 kts | 35° |
| 2026-04-23 21:18 | 25.25968 | 55.35368 | 45 ft | 7 kts | 53° |
| 2026-04-23 21:19 | 25.25997 | 55.35439 | 45 ft | 12 kts | 78° |
| 2026-04-23 21:19 | 25.25979 | 55.35542 | 45 ft | 15 kts | 116° |
| 2026-04-23 21:19 | 25.25923 | 55.35649 | 45 ft | 17 kts | 118° |
| 2026-04-23 21:19 | 25.25864 | 55.35758 | 45 ft | 15 kts | 121° |
| 2026-04-23 21:20 | 25.25813 | 55.35852 | 45 ft | 13 kts | 120° |
| 2026-04-23 21:20 | 25.25763 | 55.35934 | 45 ft | 12 kts | 125° |
| 2026-04-23 21:20 | 25.25714 | 55.36019 | 45 ft | 13 kts | 122° |
| 2026-04-23 21:20 | 25.25659 | 55.36116 | 45 ft | 16 kts | 122° |
| 2026-04-23 21:21 | 25.25600 | 55.36231 | 45 ft | 18 kts | 119° |
| 2026-04-23 21:21 | 25.25532 | 55.36354 | 45 ft | 18 kts | 121° |
| 2026-04-23 21:21 | 25.25465 | 55.36474 | 45 ft | 18 kts | 121° |
| 2026-04-23 21:21 | 25.25399 | 55.36590 | 45 ft | 17 kts | 122° |
| 2026-04-23 21:22 | 25.25334 | 55.36704 | 45 ft | 17 kts | 121° |
| 2026-04-23 21:22 | 25.25274 | 55.36817 | 45 ft | 16 kts | 120° |
| 2026-04-23 21:22 | 25.25212 | 55.36927 | 45 ft | 16 kts | 122° |
| 2026-04-23 21:22 | 25.25152 | 55.37034 | 45 ft | 16 kts | 122° |
| 2026-04-23 21:23 | 25.25090 | 55.37142 | 45 ft | 16 kts | 122° |
| 2026-04-23 21:23 | 25.25030 | 55.37247 | 45 ft | 16 kts | 122° |
| 2026-04-23 21:23 | 25.24976 | 55.37353 | 45 ft | 16 kts | 118° |
| 2026-04-23 21:23 | 25.24914 | 55.37464 | 45 ft | 17 kts | 123° |
| 2026-04-23 21:24 | 25.24852 | 55.37580 | 45 ft | 18 kts | 121° |
| 2026-04-23 21:24 | 25.24784 | 55.37703 | 45 ft | 18 kts | 121° |
| 2026-04-23 21:24 | 25.24721 | 55.37814 | 45 ft | 15 kts | 123° |
| 2026-04-23 21:24 | 25.24676 | 55.37902 | 45 ft | 10 kts | 103° |
| 2026-04-23 21:25 | 25.24703 | 55.37968 | 45 ft | 9 kts | 41° |
| 2026-04-23 21:25 | 25.24760 | 55.38009 | 45 ft | 9 kts | 27° |
| 2026-04-23 21:25 | 25.24818 | 55.37995 | 45 ft | 9 kts | 315° |
| 2026-04-23 21:25 | 25.24863 | 55.37926 | 45 ft | 16 kts | 303° |
| 2026-04-23 21:26 | 25.25036 | 55.37616 | 45 ft | 80 kts | 302° |
| 2026-04-23 21:26 | 25.25445 | 55.36869 | 45 ft | 143 kts | 299° |
| 2026-04-23 21:26 | 25.26058 | 55.35752 | 73 ft | 193 kts | 302° |
| 2026-04-23 21:26 | 25.26777 | 55.34434 | 557 ft | 204 kts | 302° |
| 2026-04-23 21:27 | 25.27533 | 55.33043 | 1151 ft | 220 kts | 303° |
| 2026-04-23 21:27 | 25.28325 | 55.31611 | 2018 ft | 219 kts | 306° |
| 2026-04-23 21:27 | 25.29328 | 55.30312 | 2425 ft | 226 kts | 328° |
| 2026-04-23 21:27 | 25.30752 | 55.29570 | 2916 ft | 230 kts | 351° |
| 2026-04-23 21:28 | 25.32360 | 55.29466 | 3461 ft | 234 kts | 5° |
| 2026-04-23 21:28 | 25.34008 | 55.29580 | 3962 ft | 242 kts | 5° |
| 2026-04-23 21:28 | 25.35684 | 55.29684 | 4592 ft | 243 kts | 2° |
| 2026-04-23 21:28 | 25.37388 | 55.29742 | 5156 ft | 248 kts | 1° |
| 2026-04-23 21:29 | 25.39148 | 55.29890 | 5614 ft | 257 kts | 16° |
| 2026-04-23 21:29 | 25.40707 | 55.30770 | 6203 ft | 260 kts | 40° |
| 2026-04-23 21:29 | 25.41946 | 55.32353 | 6429 ft | 279 kts | 55° |
| 2026-04-23 21:29 | 25.43096 | 55.34142 | 6762 ft | 294 kts | 53° |
| 2026-04-23 21:30 | 25.44353 | 55.35959 | 6964 ft | 298 kts | 51° |
| 2026-04-23 21:30 | 25.45676 | 55.37763 | 7281 ft | 307 kts | 51° |
| 2026-04-23 21:30 | 25.47017 | 55.39583 | 8176 ft | 300 kts | 51° |
| 2026-04-23 21:30 | 25.48334 | 55.41378 | 8759 ft | 305 kts | 51° |
| 2026-04-23 21:31 | 25.49655 | 55.43237 | 9327 ft | 310 kts | 53° |
| 2026-04-23 21:31 | 25.50979 | 55.45150 | 9920 ft | 313 kts | 53° |
| 2026-04-23 21:31 | 25.52191 | 55.47173 | 10381 ft | 323 kts | 65° |
| 2026-04-23 21:31 | 25.52871 | 55.49588 | 10627 ft | 337 kts | 88° |
| 2026-04-23 21:32 | 25.52611 | 55.52167 | 10874 ft | 349 kts | 109° |
| 2026-04-23 21:32 | 25.51846 | 55.54779 | 11155 ft | 365 kts | 111° |
| 2026-04-23 21:32 | 25.50991 | 55.57507 | 11499 ft | 380 kts | 111° |
| 2026-04-23 21:32 | 25.50115 | 55.60295 | 11836 ft | 394 kts | 111° |
| 2026-04-23 21:33 | 25.49197 | 55.63213 | 12208 ft | 407 kts | 111° |
| 2026-04-23 21:33 | 25.48257 | 55.66205 | 12704 ft | 416 kts | 111° |
| 2026-04-23 21:33 | 25.47306 | 55.69229 | 13325 ft | 420 kts | 111° |
| 2026-04-23 21:33 | 25.46334 | 55.72321 | 13904 ft | 426 kts | 110° |
| 2026-04-23 21:34 | 25.45367 | 55.75396 | 14541 ft | 429 kts | 111° |
| 2026-04-23 21:34 | 25.44376 | 55.78546 | 15170 ft | 433 kts | 110° |
| 2026-04-23 21:34 | 25.43384 | 55.81696 | 15725 ft | 438 kts | 110° |
| 2026-04-23 21:34 | 25.42387 | 55.84862 | 16295 ft | 442 kts | 110° |
| 2026-04-23 21:35 | 25.41364 | 55.88109 | 16905 ft | 445 kts | 110° |
| 2026-04-23 21:35 | 25.40355 | 55.91314 | 17486 ft | 449 kts | 110° |
| 2026-04-23 21:35 | 25.39317 | 55.94607 | 17989 ft | 453 kts | 110° |
| 2026-04-23 21:35 | 25.38289 | 55.97871 | 18560 ft | 456 kts | 110° |
| 2026-04-23 21:36 | 25.36188 | 56.04541 | 19660 ft | 463 kts | 109° |
| 2026-04-23 21:36 | 25.35130 | 56.07901 | 20229 ft | 465 kts | 110° |
| 2026-04-23 21:36 | 25.34065 | 56.11293 | 20774 ft | 468 kts | 109° |
| 2026-04-23 21:37 | 25.33007 | 56.14677 | 21270 ft | 472 kts | 110° |
| 2026-04-23 21:37 | 25.31919 | 56.18134 | 21756 ft | 476 kts | 110° |
| 2026-04-23 21:37 | 25.30790 | 56.21567 | 22287 ft | 479 kts | 110° |
| 2026-04-23 21:37 | 25.29658 | 56.24994 | 22840 ft | 481 kts | 110° |
| 2026-04-23 21:38 | 25.28513 | 56.28460 | 23347 ft | 484 kts | 110° |
| 2026-04-23 21:38 | 25.27350 | 56.31982 | 23813 ft | 488 kts | 110° |
| 2026-04-23 21:38 | 25.26181 | 56.35523 | 24261 ft | 492 kts | 110° |
| 2026-04-23 21:38 | 25.25017 | 56.39050 | 24705 ft | 496 kts | 110° |
| 2026-04-23 21:39 | 25.23823 | 56.42658 | 25141 ft | 500 kts | 110° |
| 2026-04-23 21:39 | 25.22636 | 56.46238 | 25623 ft | 502 kts | 111° |
| 2026-04-23 21:39 | 25.21427 | 56.49877 | 26061 ft | 505 kts | 110° |
| 2026-04-23 21:39 | 25.20222 | 56.53519 | 26478 ft | 509 kts | 110° |
| 2026-04-23 21:40 | 25.19008 | 56.57182 | 26886 ft | 512 kts | 110° |
| 2026-04-23 21:40 | 25.17715 | 56.60900 | 27310 ft | 515 kts | 113° |
| 2026-04-23 21:40 | 25.16345 | 56.64509 | 27694 ft | 518 kts | 113° |
| 2026-04-23 21:40 | 25.14932 | 56.68209 | 28068 ft | 522 kts | 114° |
| 2026-04-23 21:41 | 25.13521 | 56.71910 | 28431 ft | 525 kts | 114° |
| 2026-04-23 21:41 | 25.12106 | 56.75631 | 28799 ft | 529 kts | 113° |
| 2026-04-23 21:41 | 25.10683 | 56.79377 | 29211 ft | 531 kts | 113° |
| 2026-04-23 21:41 | 25.09258 | 56.83134 | 29756 ft | 530 kts | 113° |
| 2026-04-23 21:42 | 25.07836 | 56.86876 | 30226 ft | 530 kts | 113° |
| 2026-04-23 21:42 | 25.06417 | 56.90612 | 30659 ft | 531 kts | 113° |
| 2026-04-23 21:42 | 25.04989 | 56.94372 | 31053 ft | 533 kts | 113° |
| 2026-04-23 21:42 | 25.04582 | 56.95445 | 31164 ft | 533 kts | 113° |